sensor_id;sensor_type;location;lat;lon;timestamp;pressure;altitude;pressure_sealevel;temperature;humidity
69257;BME280;56376;53.356;-1.748;2023-09-18T00:00:49;98191.22;;;16.19;100.00
69257;BME280;56376;53.356;-1.748;2023-09-18T00:03:19;98184.13;;;16.19;100.00
69257;BME280;56376;53.356;-1.748;2023-09-18T00:05:46;98179.00;;;16.18;100.00
69257;BME280;56376;53.356;-1.748;2023-09-18T00:08:16;98176.25;;;16.19;100.00
69257;BME280;56376;53.356;-1.748;2023-09-18T00:10:42;98183.31;;;16.19;100.00
69257;BME280;56376;53.356;-1.748;2023-09-18T00:13:08;98191.22;;;16.19;100.00
69257;BME280;56376;53.356;-1.748;2023-09-18T00:15:34;98193.97;;;16.17;100.00
69257;BME280;56376;53.356;-1.748;2023-09-18T00:18:02;98189.56;;;16.18;100.00
69257;BME280;56376;53.356;-1.748;2023-09-18T00:20:28;98194.94;;;16.16;100.00
69257;BME280;56376;53.356;-1.748;2023-09-18T00:22:54;98191.47;;;16.16;100.00
69257;BME280;56376;53.356;-1.748;2023-09-18T00:25:20;98191.47;;;16.16;100.00
69257;BME280;56376;53.356;-1.748;2023-09-18T00:27:45;98183.56;;;16.16;100.00
69257;BME280;56376;53.356;-1.748;2023-09-18T00:30:11;98183.56;;;16.16;100.00
69257;BME280;56376;53.356;-1.748;2023-09-18T00:32:37;98185.22;;;16.17;100.00
69257;BME280;56376;53.356;-1.748;2023-09-18T00:35:02;98174.69;;;16.17;100.00
69257;BME280;56376;53.356;-1.748;2023-09-18T00:37:28;98173.75;;;16.18;100.00
69257;BME280;56376;53.356;-1.748;2023-09-18T00:39:54;98165.84;;;16.18;100.00
69257;BME280;56376;53.356;-1.748;2023-09-18T00:42:19;98163.22;;;16.18;100.00
69257;BME280;56376;53.356;-1.748;2023-09-18T00:44:46;98148.34;;;16.17;100.00
69257;BME280;56376;53.356;-1.748;2023-09-18T00:47:15;98137.69;;;16.18;100.00
69257;BME280;56376;53.356;-1.748;2023-09-18T00:49:43;98142.97;;;16.18;100.00
69257;BME280;56376;53.356;-1.748;2023-09-18T00:52:10;98138.41;;;16.20;100.00
69257;BME280;56376;53.356;-1.748;2023-09-18T00:54:37;98135.88;;;16.19;100.00
69257;BME280;56376;53.356;-1.748;2023-09-18T00:57:23;98134.09;;;16.19;100.00
69257;BME280;56376;53.356;-1.748;2023-09-18T00:59:49;98123.53;;;16.19;100.00
69257;BME280;56376;53.356;-1.748;2023-09-18T01:02:14;98119.09;;;16.20;100.00
69257;BME280;56376;53.356;-1.748;2023-09-18T01:04:40;98117.44;;;16.19;100.00
69257;BME280;56376;53.356;-1.748;2023-09-18T01:07:09;98113.00;;;16.19;100.00
69257;BME280;56376;53.356;-1.748;2023-09-18T01:09:35;98120.91;;;16.19;100.00
69257;BME280;56376;53.356;-1.748;2023-09-18T01:12:09;98120.91;;;16.19;100.00
69257;BME280;56376;53.356;-1.748;2023-09-18T01:14:40;98110.38;;;16.19;100.00
69257;BME280;56376;53.356;-1.748;2023-09-18T01:17:09;98111.22;;;16.20;100.00
69257;BME280;56376;53.356;-1.748;2023-09-18T01:19:43;98103.31;;;16.20;100.00
69257;BME280;56376;53.356;-1.748;2023-09-18T01:22:16;98093.75;;;16.19;100.00
69257;BME280;56376;53.356;-1.748;2023-09-18T01:24:45;98085.00;;;16.18;100.00
69257;BME280;56376;53.356;-1.748;2023-09-18T01:27:17;98077.94;;;16.19;100.00
69257;BME280;56376;53.356;-1.748;2023-09-18T01:29:44;98066.56;;;16.18;100.00
69257;BME280;56376;53.356;-1.748;2023-09-18T01:32:10;98069.22;;;16.18;100.00
69257;BME280;56376;53.356;-1.748;2023-09-18T01:34:37;98065.75;;;16.18;100.00
69257;BME280;56376;53.356;-1.748;2023-09-18T01:37:29;98053.50;;;16.17;100.00
69257;BME280;56376;53.356;-1.748;2023-09-18T01:39:55;98053.50;;;16.17;100.00
69257;BME280;56376;53.356;-1.748;2023-09-18T01:42:24;98042.03;;;16.18;100.00
69257;BME280;56376;53.356;-1.748;2023-09-18T01:44:52;98030.63;;;16.17;100.00
69257;BME280;56376;53.356;-1.748;2023-09-18T01:47:21;98028.97;;;16.16;100.00
69257;BME280;56376;53.356;-1.748;2023-09-18T01:49:48;98027.16;;;16.17;100.00
69257;BME280;56376;53.356;-1.748;2023-09-18T01:52:14;98016.63;;;16.17;100.00
69257;BME280;56376;53.356;-1.748;2023-09-18T01:54:39;98014.00;;;16.17;100.00
69257;BME280;56376;53.356;-1.748;2023-09-18T01:57:05;98009.56;;;16.17;100.00
69257;BME280;56376;53.356;-1.748;2023-09-18T01:59:33;98002.63;;;16.16;100.00
69257;BME280;56376;53.356;-1.748;2023-09-18T02:01:58;97999.16;;;16.16;100.00
69257;BME280;56376;53.356;-1.748;2023-09-18T02:04:24;97994.72;;;16.16;100.00
69257;BME280;56376;53.356;-1.748;2023-09-18T02:06:51;97996.38;;;16.17;100.00
69257;BME280;56376;53.356;-1.748;2023-09-18T02:09:17;97980.59;;;16.17;100.00
69257;BME280;56376;53.356;-1.748;2023-09-18T02:11:44;97974.50;;;16.17;100.00
69257;BME280;56376;53.356;-1.748;2023-09-18T02:14:10;97956.06;;;16.17;100.00
69257;BME280;56376;53.356;-1.748;2023-09-18T02:16:38;97949.13;;;16.16;100.00
69257;BME280;56376;53.356;-1.748;2023-09-18T02:19:06;97947.44;;;16.15;100.00
69257;BME280;56376;53.356;-1.748;2023-09-18T02:21:32;97944.94;;;16.13;100.00
69257;BME280;56376;53.356;-1.748;2023-09-18T02:23:57;97942.31;;;16.13;100.00
69257;BME280;56376;53.356;-1.748;2023-09-18T02:26:24;97930.94;;;16.13;100.00
69257;BME280;56376;53.356;-1.748;2023-09-18T02:28:51;97926.63;;;16.12;100.00
69257;BME280;56376;53.356;-1.748;2023-09-18T02:31:17;97930.09;;;16.12;100.00
69257;BME280;56376;53.356;-1.748;2023-09-18T02:33:43;97918.72;;;16.12;100.00
69257;BME280;56376;53.356;-1.748;2023-09-18T02:36:08;97906.38;;;16.12;100.00
69257;BME280;56376;53.356;-1.748;2023-09-18T02:38:34;97910.00;;;16.11;100.00
69257;BME280;56376;53.356;-1.748;2023-09-18T02:40:59;97907.25;;;16.13;100.00
69257;BME280;56376;53.356;-1.748;2023-09-18T02:43:25;97895.03;;;16.12;100.00
69257;BME280;56376;53.356;-1.748;2023-09-18T02:45:51;97897.66;;;16.12;100.00
69257;BME280;56376;53.356;-1.748;2023-09-18T02:48:18;97882.84;;;16.11;100.00
69257;BME280;56376;53.356;-1.748;2023-09-18T02:50:44;97883.78;;;16.10;100.00
69257;BME280;56376;53.356;-1.748;2023-09-18T02:53:20;97873.25;;;16.10;100.00
69257;BME280;56376;53.356;-1.748;2023-09-18T02:55:50;97873.41;;;16.08;100.00
69257;BME280;56376;53.356;-1.748;2023-09-18T02:58:18;97868.13;;;16.08;100.00
69257;BME280;56376;53.356;-1.748;2023-09-18T03:00:49;97872.56;;;16.08;100.00
69257;BME280;56376;53.356;-1.748;2023-09-18T03:03:15;97865.59;;;16.07;100.00
69257;BME280;56376;53.356;-1.748;2023-09-18T03:05:41;97856.75;;;16.08;100.00
69257;BME280;56376;53.356;-1.748;2023-09-18T03:08:09;97867.28;;;16.08;100.00
69257;BME280;56376;53.356;-1.748;2023-09-18T03:10:36;97866.44;;;16.07;100.00
69257;BME280;56376;53.356;-1.748;2023-09-18T03:13:02;97863.97;;;16.06;100.00
69257;BME280;56376;53.356;-1.748;2023-09-18T03:15:28;97858.53;;;16.07;100.00
69257;BME280;56376;53.356;-1.748;2023-09-18T03:17:54;97853.28;;;16.07;100.00
69257;BME280;56376;53.356;-1.748;2023-09-18T03:20:24;97842.75;;;16.07;100.00
69257;BME280;56376;53.356;-1.748;2023-09-18T03:22:54;97851.63;;;16.06;100.00
69257;BME280;56376;53.356;-1.748;2023-09-18T03:25:20;97846.47;;;16.05;100.00
69257;BME280;56376;53.356;-1.748;2023-09-18T03:27:45;97849.97;;;16.05;100.00
69257;BME280;56376;53.356;-1.748;2023-09-18T03:30:11;97847.44;;;16.04;100.00
69257;BME280;56376;53.356;-1.748;2023-09-18T03:32:41;97846.47;;;16.05;100.00
69257;BME280;56376;53.356;-1.748;2023-09-18T03:35:08;97835.94;;;16.05;100.00
69257;BME280;56376;53.356;-1.748;2023-09-18T03:37:54;97835.94;;;16.05;100.00
69257;BME280;56376;53.356;-1.748;2023-09-18T03:40:20;97837.63;;;16.06;100.00
69257;BME280;56376;53.356;-1.748;2023-09-18T03:42:46;97835.94;;;16.05;100.00
69257;BME280;56376;53.356;-1.748;2023-09-18T03:45:12;97837.75;;;16.04;100.00
69257;BME280;56376;53.356;-1.748;2023-09-18T03:47:40;97826.38;;;16.04;100.00
69257;BME280;56376;53.356;-1.748;2023-09-18T03:50:09;97815.00;;;16.03;100.00
69257;BME280;56376;53.356;-1.748;2023-09-18T03:52:35;97821.22;;;16.02;100.00
69257;BME280;56376;53.356;-1.748;2023-09-18T03:55:01;97828.31;;;16.01;100.00
69257;BME280;56376;53.356;-1.748;2023-09-18T03:57:26;97805.81;;;15.97;100.00
69257;BME280;56376;53.356;-1.748;2023-09-18T03:59:52;97810.41;;;15.95;100.00
69257;BME280;56376;53.356;-1.748;2023-09-18T04:02:17;97808.59;;;15.96;100.00
69257;BME280;56376;53.356;-1.748;2023-09-18T04:04:43;97809.56;;;15.95;100.00
69257;BME280;56376;53.356;-1.748;2023-09-18T04:07:10;97806.25;;;15.93;100.00
69257;BME280;56376;53.356;-1.748;2023-09-18T04:09:37;97805.38;;;15.92;100.00
69257;BME280;56376;53.356;-1.748;2023-09-18T04:12:03;97801.22;;;15.90;100.00
69257;BME280;56376;53.356;-1.748;2023-09-18T04:14:31;97798.56;;;15.90;100.00
69257;BME280;56376;53.356;-1.748;2023-09-18T04:16:58;97804.00;;;15.88;100.00
69257;BME280;56376;53.356;-1.748;2023-09-18T04:19:25;97797.91;;;15.88;100.00
69257;BME280;56376;53.356;-1.748;2023-09-18T04:21:51;97799.56;;;15.89;100.00
69257;BME280;56376;53.356;-1.748;2023-09-18T04:24:16;97791.94;;;15.86;100.00
69257;BME280;56376;53.356;-1.748;2023-09-18T04:26:42;97796.38;;;15.85;100.00
69257;BME280;56376;53.356;-1.748;2023-09-18T04:29:08;97785.94;;;15.84;100.00
69257;BME280;56376;53.356;-1.748;2023-09-18T04:31:34;97789.56;;;15.83;100.00
69257;BME280;56376;53.356;-1.748;2023-09-18T04:33:59;97789.69;;;15.81;100.00
69257;BME280;56376;53.356;-1.748;2023-09-18T04:36:24;97780.97;;;15.81;100.00
69257;BME280;56376;53.356;-1.748;2023-09-18T04:38:50;97781.91;;;15.79;100.00
69257;BME280;56376;53.356;-1.748;2023-09-18T04:41:16;97781.91;;;15.79;100.00
69257;BME280;56376;53.356;-1.748;2023-09-18T04:43:41;97771.38;;;15.79;100.00
69257;BME280;56376;53.356;-1.748;2023-09-18T04:46:08;97783.72;;;15.79;100.00
69257;BME280;56376;53.356;-1.748;2023-09-18T04:48:35;97774.28;;;15.76;100.00
69257;BME280;56376;53.356;-1.748;2023-09-18T04:51:02;97776.06;;;15.76;100.00
69257;BME280;56376;53.356;-1.748;2023-09-18T04:53:29;97777.88;;;15.75;100.00
69257;BME280;56376;53.356;-1.748;2023-09-18T04:55:54;97775.25;;;15.75;100.00
69257;BME280;56376;53.356;-1.748;2023-09-18T04:58:21;97771.78;;;15.75;100.00
69257;BME280;56376;53.356;-1.748;2023-09-18T05:00:53;97764.84;;;15.74;100.00
69257;BME280;56376;53.356;-1.748;2023-09-18T05:03:18;97773.72;;;15.73;100.00
69257;BME280;56376;53.356;-1.748;2023-09-18T05:05:43;97763.31;;;15.71;100.00
69257;BME280;56376;53.356;-1.748;2023-09-18T05:08:10;97764.38;;;15.69;100.00
69257;BME280;56376;53.356;-1.748;2023-09-18T05:10:36;97770.50;;;15.69;100.00
69257;BME280;56376;53.356;-1.748;2023-09-18T05:13:02;97765.34;;;15.68;100.00
69257;BME280;56376;53.356;-1.748;2023-09-18T05:15:28;97768.81;;;15.68;100.00
69257;BME280;56376;53.356;-1.748;2023-09-18T05:17:56;97758.41;;;15.67;100.00
69257;BME280;56376;53.356;-1.748;2023-09-18T05:20:28;97753.28;;;15.65;100.00
69257;BME280;56376;53.356;-1.748;2023-09-18T05:22:55;97746.47;;;15.63;100.00
69257;BME280;56376;53.356;-1.748;2023-09-18T05:25:21;97749.34;;;15.59;100.00
69257;BME280;56376;53.356;-1.748;2023-09-18T05:27:49;97751.31;;;15.57;100.00
69257;BME280;56376;53.356;-1.748;2023-09-18T05:30:24;97749.50;;;15.58;100.00
69257;BME280;56376;53.356;-1.748;2023-09-18T05:32:50;97748.78;;;15.56;100.00
69257;BME280;56376;53.356;-1.748;2023-09-18T05:35:16;97751.53;;;15.54;100.00
69257;BME280;56376;53.356;-1.748;2023-09-18T05:37:42;97740.34;;;15.52;100.00
69257;BME280;56376;53.356;-1.748;2023-09-18T05:40:10;97742.00;;;15.53;100.00
69257;BME280;56376;53.356;-1.748;2023-09-18T05:42:43;97742.25;;;15.50;100.00
69257;BME280;56376;53.356;-1.748;2023-09-18T05:45:09;97747.78;;;15.47;100.00
69257;BME280;56376;53.356;-1.748;2023-09-18T05:47:35;97739.91;;;15.47;100.00
69257;BME280;56376;53.356;-1.748;2023-09-18T05:50:11;97739.31;;;15.44;100.00
69257;BME280;56376;53.356;-1.748;2023-09-18T05:52:41;97736.94;;;15.41;100.00
69257;BME280;56376;53.356;-1.748;2023-09-18T05:55:07;97734.41;;;15.39;100.00
69257;BME280;56376;53.356;-1.748;2023-09-18T05:57:34;97733.84;;;15.35;100.00
69257;BME280;56376;53.356;-1.748;2023-09-18T06:00:00;97740.22;;;15.33;100.00
69257;BME280;56376;53.356;-1.748;2023-09-18T06:02:25;97735.91;;;15.32;100.00
69257;BME280;56376;53.356;-1.748;2023-09-18T06:04:58;97742.13;;;15.31;100.00
69257;BME280;56376;53.356;-1.748;2023-09-18T06:07:26;97737.13;;;15.28;100.00
69257;BME280;56376;53.356;-1.748;2023-09-18T06:09:52;97741.69;;;15.26;100.00
69257;BME280;56376;53.356;-1.748;2023-09-18T06:12:17;97740.84;;;15.25;100.00
69257;BME280;56376;53.356;-1.748;2023-09-18T06:14:43;97738.34;;;15.24;100.00
69257;BME280;56376;53.356;-1.748;2023-09-18T06:17:11;97737.53;;;15.23;100.00
69257;BME280;56376;53.356;-1.748;2023-09-18T06:19:36;97738.50;;;15.22;100.00
69257;BME280;56376;53.356;-1.748;2023-09-18T06:22:02;97731.53;;;15.21;100.00
69257;BME280;56376;53.356;-1.748;2023-09-18T06:24:27;97739.59;;;15.20;100.00
69257;BME280;56376;53.356;-1.748;2023-09-18T06:26:53;97736.25;;;15.18;100.00
69257;BME280;56376;53.356;-1.748;2023-09-18T06:29:19;97731.25;;;15.14;100.00
69257;BME280;56376;53.356;-1.748;2023-09-18T06:31:44;97727.06;;;15.12;100.00
69257;BME280;56376;53.356;-1.748;2023-09-18T06:34:10;97733.16;;;15.12;100.00
69257;BME280;56376;53.356;-1.748;2023-09-18T06:36:37;97742.84;;;15.12;100.00
69257;BME280;56376;53.356;-1.748;2023-09-18T06:39:03;97735.19;;;15.09;100.00
69257;BME280;56376;53.356;-1.748;2023-09-18T06:41:28;97732.44;;;15.10;100.00
69257;BME280;56376;53.356;-1.748;2023-09-18T06:43:53;97726.47;;;15.08;100.00
69257;BME280;56376;53.356;-1.748;2023-09-18T06:46:19;97727.44;;;15.07;100.00
69257;BME280;56376;53.356;-1.748;2023-09-18T06:48:44;97737.25;;;15.05;100.00
69257;BME280;56376;53.356;-1.748;2023-09-18T06:51:14;97736.44;;;15.05;100.00
69257;BME280;56376;53.356;-1.748;2023-09-18T06:53:40;97728.66;;;15.03;100.00
69257;BME280;56376;53.356;-1.748;2023-09-18T06:56:05;97724.22;;;15.04;100.00
69257;BME280;56376;53.356;-1.748;2023-09-18T06:58:50;97723.28;;;15.05;100.00
69257;BME280;56376;53.356;-1.748;2023-09-18T07:01:19;97715.50;;;15.03;100.00
69257;BME280;56376;53.356;-1.748;2023-09-18T07:03:47;97718.97;;;15.04;100.00
69257;BME280;56376;53.356;-1.748;2023-09-18T07:06:16;97715.41;;;15.05;100.00
69257;BME280;56376;53.356;-1.748;2023-09-18T07:08:45;97712.78;;;15.05;100.00
69257;BME280;56376;53.356;-1.748;2023-09-18T07:11:10;97711.09;;;15.04;100.00
69257;BME280;56376;53.356;-1.748;2023-09-18T07:13:37;97712.06;;;15.03;100.00
69257;BME280;56376;53.356;-1.748;2023-09-18T07:16:03;97703.56;;;14.99;100.00
69257;BME280;56376;53.356;-1.748;2023-09-18T07:18:31;97705.25;;;15.00;100.00
69257;BME280;56376;53.356;-1.748;2023-09-18T07:20:56;97705.13;;;15.02;100.00
69257;BME280;56376;53.356;-1.748;2023-09-18T07:23:21;97701.53;;;15.03;100.00
69257;BME280;56376;53.356;-1.748;2023-09-18T07:25:48;97694.22;;;15.06;100.00
69257;BME280;56376;53.356;-1.748;2023-09-18T07:28:14;97691.47;;;15.08;100.00
69257;BME280;56376;53.356;-1.748;2023-09-18T07:30:43;97686.53;;;15.14;100.00
69257;BME280;56376;53.356;-1.748;2023-09-18T07:33:10;97680.31;;;15.15;100.00
69257;BME280;56376;53.356;-1.748;2023-09-18T07:35:35;97684.75;;;15.15;100.00
69257;BME280;56376;53.356;-1.748;2023-09-18T07:38:02;97688.19;;;15.15;100.00
69257;BME280;56376;53.356;-1.748;2023-09-18T07:40:27;97682.94;;;15.15;100.00
69257;BME280;56376;53.356;-1.748;2023-09-18T07:42:53;97682.66;;;15.19;100.00
69257;BME280;56376;53.356;-1.748;2023-09-18T07:45:18;97688.38;;;15.24;100.00
69257;BME280;56376;53.356;-1.748;2023-09-18T07:47:46;97680.28;;;15.36;100.00
69257;BME280;56376;53.356;-1.748;2023-09-18T07:50:12;97680.91;;;15.50;100.00
69257;BME280;56376;53.356;-1.748;2023-09-18T07:52:38;97684.16;;;15.63;100.00
69257;BME280;56376;53.356;-1.748;2023-09-18T07:55:03;97680.22;;;15.78;100.00
69257;BME280;56376;53.356;-1.748;2023-09-18T07:57:29;97680.69;;;15.93;100.00
69257;BME280;56376;53.356;-1.748;2023-09-18T07:59:57;97680.16;;;16.09;100.00
69257;BME280;56376;53.356;-1.748;2023-09-18T08:02:22;97673.81;;;16.21;100.00
69257;BME280;56376;53.356;-1.748;2023-09-18T08:04:48;97686.84;;;16.33;100.00
69257;BME280;56376;53.356;-1.748;2023-09-18T08:07:15;97680.22;;;16.38;100.00
69257;BME280;56376;53.356;-1.748;2023-09-18T08:09:41;97679.94;;;16.41;100.00
69257;BME280;56376;53.356;-1.748;2023-09-18T08:12:07;97677.59;;;16.48;100.00
69257;BME280;56376;53.356;-1.748;2023-09-18T08:14:34;97664.41;;;16.58;100.00
69257;BME280;56376;53.356;-1.748;2023-09-18T08:17:03;97666.91;;;16.69;100.00
69257;BME280;56376;53.356;-1.748;2023-09-18T08:19:30;97667.03;;;16.77;100.00
69257;BME280;56376;53.356;-1.748;2023-09-18T08:21:56;97665.94;;;16.80;100.00
69257;BME280;56376;53.356;-1.748;2023-09-18T08:24:22;97657.34;;;16.87;100.00
69257;BME280;56376;53.356;-1.748;2023-09-18T08:26:49;97660.09;;;16.96;100.00
69257;BME280;56376;53.356;-1.748;2023-09-18T08:29:15;97654.97;;;17.04;100.00
69257;BME280;56376;53.356;-1.748;2023-09-18T08:31:41;97655.91;;;17.13;100.00
69257;BME280;56376;53.356;-1.748;2023-09-18T08:34:06;97647.16;;;17.22;100.00
69257;BME280;56376;53.356;-1.748;2023-09-18T08:36:31;97652.97;;;17.25;100.00
69257;BME280;56376;53.356;-1.748;2023-09-18T08:38:57;97649.50;;;17.25;100.00
69257;BME280;56376;53.356;-1.748;2023-09-18T08:41:23;97641.28;;;17.28;100.00
69257;BME280;56376;53.356;-1.748;2023-09-18T08:43:56;97644.31;;;17.33;100.00
69257;BME280;56376;53.356;-1.748;2023-09-18T08:46:25;97644.19;;;17.35;100.00
69257;BME280;56376;53.356;-1.748;2023-09-18T08:48:51;97639.31;;;17.40;100.00
69257;BME280;56376;53.356;-1.748;2023-09-18T08:51:18;97643.88;;;17.47;100.00
69257;BME280;56376;53.356;-1.748;2023-09-18T08:53:44;97639.38;;;17.58;100.00
69257;BME280;56376;53.356;-1.748;2023-09-18T08:56:10;97630.59;;;17.67;100.00
69257;BME280;56376;53.356;-1.748;2023-09-18T08:58:39;97642.50;;;17.71;100.00
69257;BME280;56376;53.356;-1.748;2023-09-18T09:01:08;97638.72;;;17.73;100.00
69257;BME280;56376;53.356;-1.748;2023-09-18T09:03:42;97637.47;;;17.78;100.00
69257;BME280;56376;53.356;-1.748;2023-09-18T09:06:09;97638.47;;;17.77;100.00
69257;BME280;56376;53.356;-1.748;2023-09-18T09:08:36;97628.47;;;17.80;100.00
69257;BME280;56376;53.356;-1.748;2023-09-18T09:11:02;97632.47;;;17.84;100.00
69257;BME280;56376;53.356;-1.748;2023-09-18T09:13:28;97621.59;;;17.87;100.00
69257;BME280;56376;53.356;-1.748;2023-09-18T09:15:56;97643.94;;;17.93;100.00
69257;BME280;56376;53.356;-1.748;2023-09-18T09:18:26;97629.19;;;18.00;100.00
69257;BME280;56376;53.356;-1.748;2023-09-18T09:20:57;97621.19;;;18.10;100.00
69257;BME280;56376;53.356;-1.748;2023-09-18T09:23:28;97620.28;;;18.19;100.00
69257;BME280;56376;53.356;-1.748;2023-09-18T09:26:12;97618.94;;;18.33;100.00
69257;BME280;56376;53.356;-1.748;2023-09-18T09:28:38;97617.19;;;18.42;100.00
69257;BME280;56376;53.356;-1.748;2023-09-18T09:31:03;97621.72;;;18.49;100.00
69257;BME280;56376;53.356;-1.748;2023-09-18T09:33:30;97613.88;;;18.57;100.00
69257;BME280;56376;53.356;-1.748;2023-09-18T09:35:56;97612.94;;;18.67;100.00
69257;BME280;56376;53.356;-1.748;2023-09-18T09:38:33;97612.09;;;18.66;100.00
69257;BME280;56376;53.356;-1.748;2023-09-18T09:41:03;97611.78;;;18.69;100.00
69257;BME280;56376;53.356;-1.748;2023-09-18T09:43:32;97618.91;;;18.69;100.00
69257;BME280;56376;53.356;-1.748;2023-09-18T09:46:02;97623.50;;;18.67;100.00
69257;BME280;56376;53.356;-1.748;2023-09-18T09:48:30;97622.19;;;18.63;100.00
69257;BME280;56376;53.356;-1.748;2023-09-18T09:50:58;97627.00;;;18.49;100.00
69257;BME280;56376;53.356;-1.748;2023-09-18T09:53:46;97624.47;;;18.40;100.00
69257;BME280;56376;53.356;-1.748;2023-09-18T09:56:14;97630.41;;;18.24;100.00
69257;BME280;56376;53.356;-1.748;2023-09-18T09:59:01;97632.44;;;18.12;100.00
69257;BME280;56376;53.356;-1.748;2023-09-18T10:01:34;97638.91;;;18.00;100.00
69257;BME280;56376;53.356;-1.748;2023-09-18T10:04:03;97636.34;;;17.90;100.00
69257;BME280;56376;53.356;-1.748;2023-09-18T10:09:38;97638.78;;;17.64;100.00
69257;BME280;56376;53.356;-1.748;2023-09-18T10:12:10;97644.13;;;17.54;100.00
69257;BME280;56376;53.356;-1.748;2023-09-18T10:14:36;97635.53;;;17.42;100.00
69257;BME280;56376;53.356;-1.748;2023-09-18T10:17:17;97650.44;;;17.34;100.00
69257;BME280;56376;53.356;-1.748;2023-09-18T10:19:53;97644.09;;;17.26;100.00
69257;BME280;56376;53.356;-1.748;2023-09-18T10:22:33;97639.38;;;17.20;100.00
69257;BME280;56376;53.356;-1.748;2023-09-18T10:25:17;97633.56;;;17.17;100.00
69257;BME280;56376;53.356;-1.748;2023-09-18T10:27:47;97647.16;;;17.12;100.00
69257;BME280;56376;53.356;-1.748;2023-09-18T10:30:15;97637.19;;;17.06;100.00
69257;BME280;56376;53.356;-1.748;2023-09-18T10:32:44;97640.25;;;17.01;100.00
69257;BME280;56376;53.356;-1.748;2023-09-18T10:35:13;97641.94;;;16.93;100.00
69257;BME280;56376;53.356;-1.748;2023-09-18T10:37:41;97640.41;;;16.90;100.00
69257;BME280;56376;53.356;-1.748;2023-09-18T10:40:08;97636.25;;;16.87;100.00
69257;BME280;56376;53.356;-1.748;2023-09-18T10:42:39;97653.06;;;16.86;100.00
69257;BME280;56376;53.356;-1.748;2023-09-18T10:45:08;97653.59;;;16.80;100.00
69257;BME280;56376;53.356;-1.748;2023-09-18T10:47:43;97662.50;;;16.79;100.00
69257;BME280;56376;53.356;-1.748;2023-09-18T10:50:22;97680.50;;;16.74;100.00
69257;BME280;56376;53.356;-1.748;2023-09-18T10:52:49;97700.75;;;16.64;100.00
69257;BME280;56376;53.356;-1.748;2023-09-18T10:55:14;97716.81;;;16.41;100.00
69257;BME280;56376;53.356;-1.748;2023-09-18T10:57:54;97745.06;;;16.20;100.00
69257;BME280;56376;53.356;-1.748;2023-09-18T11:00:28;97750.28;;;16.00;100.00
69257;BME280;56376;53.356;-1.748;2023-09-18T11:03:09;97723.03;;;15.81;100.00
69257;BME280;56376;53.356;-1.748;2023-09-18T11:05:35;97713.91;;;15.64;100.00
69257;BME280;56376;53.356;-1.748;2023-09-18T11:08:28;97729.44;;;15.36;100.00
69257;BME280;56376;53.356;-1.748;2023-09-18T11:10:58;97757.00;;;15.00;100.00
69257;BME280;56376;53.356;-1.748;2023-09-18T11:13:31;97763.22;;;14.66;100.00
69257;BME280;56376;53.356;-1.748;2023-09-18T11:19:07;97772.38;;;14.17;100.00
69257;BME280;56376;53.356;-1.748;2023-09-18T11:21:33;97774.97;;;14.06;100.00
69257;BME280;56376;53.356;-1.748;2023-09-18T11:24:27;97768.78;;;13.96;100.00
69257;BME280;56376;53.356;-1.748;2023-09-18T11:26:54;97772.88;;;13.89;100.00
69257;BME280;56376;53.356;-1.748;2023-09-18T11:29:22;97781.81;;;13.86;100.00
69257;BME280;56376;53.356;-1.748;2023-09-18T11:31:53;97774.06;;;13.84;100.00
69257;BME280;56376;53.356;-1.748;2023-09-18T11:34:27;97771.78;;;13.80;100.00
69257;BME280;56376;53.356;-1.748;2023-09-18T11:36:57;97765.34;;;13.84;100.00
69257;BME280;56376;53.356;-1.748;2023-09-18T11:39:33;97750.91;;;13.90;100.00
69257;BME280;56376;53.356;-1.748;2023-09-18T11:42:11;97739.44;;;13.91;100.00
69257;BME280;56376;53.356;-1.748;2023-09-18T11:44:38;97728.59;;;13.95;100.00
69257;BME280;56376;53.356;-1.748;2023-09-18T11:47:11;97731.81;;;13.99;100.00
69257;BME280;56376;53.356;-1.748;2023-09-18T11:50:01;97724.16;;;13.96;100.00
69257;BME280;56376;53.356;-1.748;2023-09-18T11:52:29;97728.22;;;14.00;100.00
69257;BME280;56376;53.356;-1.748;2023-09-18T11:54:59;97730.13;;;13.98;100.00
69257;BME280;56376;53.356;-1.748;2023-09-18T11:57:25;97726.31;;;14.02;100.00
69257;BME280;56376;53.356;-1.748;2023-09-18T11:59:51;97731.94;;;13.97;100.00
69257;BME280;56376;53.356;-1.748;2023-09-18T12:02:28;97727.50;;;13.98;100.00
69257;BME280;56376;53.356;-1.748;2023-09-18T12:04:55;97728.13;;;14.01;100.00
69257;BME280;56376;53.356;-1.748;2023-09-18T12:07:21;97707.59;;;14.06;100.00
69257;BME280;56376;53.356;-1.748;2023-09-18T12:09:47;97717.84;;;14.10;100.00
69257;BME280;56376;53.356;-1.748;2023-09-18T12:12:14;97720.72;;;14.06;100.00
69257;BME280;56376;53.356;-1.748;2023-09-18T12:14:40;97723.19;;;14.08;100.00
69257;BME280;56376;53.356;-1.748;2023-09-18T12:17:14;97721.91;;;14.14;100.00
69257;BME280;56376;53.356;-1.748;2023-09-18T12:19:53;97711.97;;;14.17;100.00
69257;BME280;56376;53.356;-1.748;2023-09-18T12:22:26;97713.41;;;14.21;100.00
69257;BME280;56376;53.356;-1.748;2023-09-18T12:24:51;97710.38;;;14.26;100.00
69257;BME280;56376;53.356;-1.748;2023-09-18T12:27:36;97723.50;;;14.37;100.00
69257;BME280;56376;53.356;-1.748;2023-09-18T12:30:03;97724.19;;;14.50;100.00
69257;BME280;56376;53.356;-1.748;2023-09-18T12:32:30;97726.69;;;14.63;100.00
69257;BME280;56376;53.356;-1.748;2023-09-18T12:34:56;97721.16;;;14.66;100.00
69257;BME280;56376;53.356;-1.748;2023-09-18T12:37:41;97728.75;;;14.81;100.00
69257;BME280;56376;53.356;-1.748;2023-09-18T12:40:22;97723.84;;;14.87;100.00
69257;BME280;56376;53.356;-1.748;2023-09-18T12:42:49;97719.75;;;14.95;100.00
69257;BME280;56376;53.356;-1.748;2023-09-18T12:45:14;97716.72;;;14.99;100.00
69257;BME280;56376;53.356;-1.748;2023-09-18T12:47:40;97716.22;;;15.05;100.00
69257;BME280;56376;53.356;-1.748;2023-09-18T12:50:06;97722.19;;;15.07;100.00
69257;BME280;56376;53.356;-1.748;2023-09-18T12:52:36;97734.09;;;15.11;100.00